Archival Weather

NSFA McMurdo Sound

NSFA McMurdo Sound, Antarctica (NZCM)

Report from: Saturday, February 24, 2024 11:55 PM UTC
Current time: Friday, June 14, 2024 1:21 PM UTC

Current weather – Weather history – Daily summaries
Weather forecast

Temperature-11.1°C (12.0°F)
Wind chill-16.3°C (2.7°F)
Dew point-20.8°C (-5.4°F)
Winds 5 kts (2.6 m/s, 5.8 mph) East (90°)
Visibility6.2 mi. (10 km)
Clouds Sky clear
Altimeter29.14 in.Hg (987 mB)
Relative humidity44 %
Density altitude-5,729 ft. (-1,746 m)
Sea-level pressure108.7 kPa (1087 mB, 32.11 in.Hg)
Max temp last 6 hours-10.6°C (12.9°F)
Min temp last 6 hours-13.5°C (7.7°F)
Remarks Fully automated report
Automated weather observing station with precipitation discriminator
Pressure falling more slowly
Flight conditions Visual Meteorological Conditions
Raw dataNZCM 242355Z AUTO 09005KT 9999 CLR M11/M21 A2914 RMK AO2 SLP872 T11111208 11106 21135 56001
An error has occurred. This application may no longer respond until reloaded. Reload 🗙